sensor_id;sensor_type;location;lat;lon;timestamp;P1;durP1;ratioP1;P2;durP2;ratioP2
31224;SDS011;17847;31.524;74.366;2024-03-23T00:52:14;27.00;;;20.48;;
31224;SDS011;17847;31.524;74.366;2024-03-23T00:54:42;34.50;;;21.98;;
31224;SDS011;17847;31.524;74.366;2024-03-23T00:57:09;32.20;;;21.98;;
31224;SDS011;17847;31.524;74.366;2024-03-23T00:59:38;34.78;;;21.48;;
31224;SDS011;17847;31.524;74.366;2024-03-23T01:02:05;30.88;;;21.83;;
31224;SDS011;17847;31.524;74.366;2024-03-23T01:04:33;36.88;;;22.52;;
31224;SDS011;17847;31.524;74.366;2024-03-23T01:07:00;35.13;;;21.50;;
31224;SDS011;17847;31.524;74.366;2024-03-23T01:09:28;34.50;;;23.38;;
31224;SDS011;17847;31.524;74.366;2024-03-23T01:11:56;39.47;;;25.52;;
31224;SDS011;17847;31.524;74.366;2024-03-23T01:14:24;34.63;;;25.63;;
31224;SDS011;17847;31.524;74.366;2024-03-23T01:16:51;40.65;;;28.38;;
31224;SDS011;17847;31.524;74.366;2024-03-23T01:19:19;41.30;;;30.90;;
31224;SDS011;17847;31.524;74.366;2024-03-23T01:21:47;50.55;;;34.13;;
31224;SDS011;17847;31.524;74.366;2024-03-23T01:24:15;57.70;;;38.20;;
31224;SDS011;17847;31.524;74.366;2024-03-23T01:26:44;57.63;;;39.95;;
31224;SDS011;17847;31.524;74.366;2024-03-23T01:29:11;60.65;;;41.08;;
31224;SDS011;17847;31.524;74.366;2024-03-23T01:31:39;59.20;;;40.03;;
31224;SDS011;17847;31.524;74.366;2024-03-23T01:34:07;59.88;;;40.05;;
31224;SDS011;17847;31.524;74.366;2024-03-23T01:36:34;56.30;;;38.20;;
31224;SDS011;17847;31.524;74.366;2024-03-23T01:39:02;56.00;;;37.13;;
31224;SDS011;17847;31.524;74.366;2024-03-23T01:41:30;56.03;;;35.65;;
31224;SDS011;17847;31.524;74.366;2024-03-23T01:43:57;55.88;;;33.50;;
31224;SDS011;17847;31.524;74.366;2024-03-23T01:46:30;45.78;;;32.47;;
31224;SDS011;17847;31.524;74.366;2024-03-23T01:48:58;51.47;;;33.00;;
31224;SDS011;17847;31.524;74.366;2024-03-23T01:51:26;41.22;;;29.92;;
31224;SDS011;17847;31.524;74.366;2024-03-23T01:53:55;41.58;;;28.60;;
31224;SDS011;17847;31.524;74.366;2024-03-23T01:56:24;39.10;;;25.38;;
31224;SDS011;17847;31.524;74.366;2024-03-23T01:58:51;33.63;;;23.80;;
31224;SDS011;17847;31.524;74.366;2024-03-23T02:01:19;36.33;;;23.50;;
31224;SDS011;17847;31.524;74.366;2024-03-23T02:03:48;33.70;;;23.40;;
31224;SDS011;17847;31.524;74.366;2024-03-23T02:06:15;37.35;;;23.48;;
31224;SDS011;17847;31.524;74.366;2024-03-23T02:08:43;42.20;;;24.10;;
31224;SDS011;17847;31.524;74.366;2024-03-23T02:11:11;35.78;;;24.58;;
31224;SDS011;17847;31.524;74.366;2024-03-23T02:13:39;42.33;;;27.35;;
31224;SDS011;17847;31.524;74.366;2024-03-23T02:16:06;32.65;;;22.52;;
31224;SDS011;17847;31.524;74.366;2024-03-23T02:18:35;32.70;;;23.13;;
31224;SDS011;17847;31.524;74.366;2024-03-23T02:21:03;34.65;;;21.77;;
31224;SDS011;17847;31.524;74.366;2024-03-23T02:23:31;30.70;;;20.50;;
31224;SDS011;17847;31.524;74.366;2024-03-23T02:25:59;30.10;;;19.80;;
31224;SDS011;17847;31.524;74.366;2024-03-23T02:28:27;27.70;;;19.55;;
31224;SDS011;17847;31.524;74.366;2024-03-23T02:30:54;28.98;;;18.55;;
31224;SDS011;17847;31.524;74.366;2024-03-23T02:33:23;27.70;;;19.02;;
31224;SDS011;17847;31.524;74.366;2024-03-23T02:35:50;32.00;;;17.90;;
31224;SDS011;17847;31.524;74.366;2024-03-23T02:38:22;33.03;;;19.00;;
31224;SDS011;17847;31.524;74.366;2024-03-23T02:40:50;27.08;;;18.27;;
31224;SDS011;17847;31.524;74.366;2024-03-23T02:43:18;23.48;;;17.65;;
31224;SDS011;17847;31.524;74.366;2024-03-23T02:45:46;28.63;;;18.35;;
31224;SDS011;17847;31.524;74.366;2024-03-23T02:48:13;31.75;;;18.33;;
31224;SDS011;17847;31.524;74.366;2024-03-23T02:50:41;29.17;;;18.05;;
31224;SDS011;17847;31.524;74.366;2024-03-23T02:53:08;34.92;;;22.27;;
31224;SDS011;17847;31.524;74.366;2024-03-23T02:55:39;41.42;;;23.13;;
31224;SDS011;17847;31.524;74.366;2024-03-23T02:58:07;34.90;;;23.17;;
31224;SDS011;17847;31.524;74.366;2024-03-23T03:00:34;34.20;;;21.73;;
31224;SDS011;17847;31.524;74.366;2024-03-23T03:03:02;37.35;;;19.80;;
31224;SDS011;17847;31.524;74.366;2024-03-23T03:05:31;35.05;;;19.55;;
31224;SDS011;17847;31.524;74.366;2024-03-23T03:07:58;26.77;;;18.35;;
31224;SDS011;17847;31.524;74.366;2024-03-23T03:10:26;29.65;;;16.98;;
31224;SDS011;17847;31.524;74.366;2024-03-23T03:12:54;24.40;;;17.20;;
31224;SDS011;17847;31.524;74.366;2024-03-23T03:15:21;25.88;;;17.38;;
31224;SDS011;17847;31.524;74.366;2024-03-23T03:17:49;28.88;;;18.58;;
31224;SDS011;17847;31.524;74.366;2024-03-23T03:20:17;45.65;;;21.40;;
31224;SDS011;17847;31.524;74.366;2024-03-23T03:22:45;34.97;;;19.85;;
31224;SDS011;17847;31.524;74.366;2024-03-23T03:25:13;30.23;;;19.25;;
31224;SDS011;17847;31.524;74.366;2024-03-23T03:27:41;33.78;;;19.63;;
31224;SDS011;17847;31.524;74.366;2024-03-23T03:30:08;25.63;;;18.50;;
31224;SDS011;17847;31.524;74.366;2024-03-23T03:32:37;24.33;;;17.40;;
31224;SDS011;17847;31.524;74.366;2024-03-23T03:35:04;29.13;;;19.23;;
31224;SDS011;17847;31.524;74.366;2024-03-23T03:37:32;28.02;;;18.13;;
31224;SDS011;17847;31.524;74.366;2024-03-23T03:40:00;31.27;;;18.05;;
31224;SDS011;17847;31.524;74.366;2024-03-23T03:42:27;28.67;;;18.77;;
31224;SDS011;17847;31.524;74.366;2024-03-23T03:44:56;34.08;;;18.40;;
31224;SDS011;17847;31.524;74.366;2024-03-23T03:47:23;29.08;;;18.25;;
31224;SDS011;17847;31.524;74.366;2024-03-23T03:49:51;27.83;;;18.27;;
31224;SDS011;17847;31.524;74.366;2024-03-23T03:52:19;28.77;;;18.42;;
31224;SDS011;17847;31.524;74.366;2024-03-23T03:54:47;27.02;;;17.92;;
31224;SDS011;17847;31.524;74.366;2024-03-23T03:57:14;29.98;;;15.88;;
31224;SDS011;17847;31.524;74.366;2024-03-23T03:59:42;24.65;;;16.17;;
31224;SDS011;17847;31.524;74.366;2024-03-23T04:02:10;25.52;;;16.10;;
31224;SDS011;17847;31.524;74.366;2024-03-23T04:04:38;29.50;;;16.40;;
31224;SDS011;17847;31.524;74.366;2024-03-23T04:07:06;33.15;;;18.33;;
31224;SDS011;17847;31.524;74.366;2024-03-23T04:09:33;29.83;;;19.50;;
31224;SDS011;17847;31.524;74.366;2024-03-23T04:12:02;29.15;;;19.92;;
31224;SDS011;17847;31.524;74.366;2024-03-23T04:14:29;32.47;;;19.40;;
31224;SDS011;17847;31.524;74.366;2024-03-23T04:16:57;36.80;;;19.58;;
31224;SDS011;17847;31.524;74.366;2024-03-23T04:19:26;33.05;;;19.63;;
31224;SDS011;17847;31.524;74.366;2024-03-23T04:21:53;23.60;;;16.58;;
31224;SDS011;17847;31.524;74.366;2024-03-23T04:24:21;28.48;;;16.27;;
31224;SDS011;17847;31.524;74.366;2024-03-23T04:26:49;29.50;;;15.88;;
31224;SDS011;17847;31.524;74.366;2024-03-23T04:29:16;28.58;;;15.95;;
31224;SDS011;17847;31.524;74.366;2024-03-23T04:31:44;24.02;;;18.00;;
31224;SDS011;17847;31.524;74.366;2024-03-23T04:34:12;33.67;;;18.13;;
31224;SDS011;17847;31.524;74.366;2024-03-23T04:36:41;34.92;;;16.42;;
31224;SDS011;17847;31.524;74.366;2024-03-23T04:39:08;30.88;;;17.02;;
31224;SDS011;17847;31.524;74.366;2024-03-23T04:41:36;30.23;;;21.10;;
31224;SDS011;17847;31.524;74.366;2024-03-23T04:44:04;29.50;;;21.13;;
31224;SDS011;17847;31.524;74.366;2024-03-23T04:46:33;29.17;;;19.15;;
31224;SDS011;17847;31.524;74.366;2024-03-23T04:49:01;33.40;;;17.83;;
31224;SDS011;17847;31.524;74.366;2024-03-23T04:51:35;27.45;;;16.52;;
31224;SDS011;17847;31.524;74.366;2024-03-23T04:54:04;23.60;;;14.18;;
31224;SDS011;17847;31.524;74.366;2024-03-23T04:56:32;20.50;;;13.63;;
31224;SDS011;17847;31.524;74.366;2024-03-23T04:59:00;21.25;;;14.00;;
31224;SDS011;17847;31.524;74.366;2024-03-23T05:01:28;25.65;;;12.43;;
31224;SDS011;17847;31.524;74.366;2024-03-23T05:03:57;32.13;;;15.82;;
31224;SDS011;17847;31.524;74.366;2024-03-23T05:06:25;28.38;;;12.77;;
31224;SDS011;17847;31.524;74.366;2024-03-23T05:08:53;17.35;;;10.82;;
31224;SDS011;17847;31.524;74.366;2024-03-23T05:11:20;14.77;;;9.75;;
31224;SDS011;17847;31.524;74.366;2024-03-23T05:13:48;21.02;;;10.77;;
31224;SDS011;17847;31.524;74.366;2024-03-23T05:16:17;23.02;;;13.30;;
31224;SDS011;17847;31.524;74.366;2024-03-23T05:18:45;22.13;;;13.23;;
31224;SDS011;17847;31.524;74.366;2024-03-23T05:21:13;30.95;;;14.18;;
31224;SDS011;17847;31.524;74.366;2024-03-23T05:23:40;22.92;;;12.20;;
31224;SDS011;17847;31.524;74.366;2024-03-23T05:26:10;27.40;;;13.18;;
31224;SDS011;17847;31.524;74.366;2024-03-23T05:28:37;26.38;;;14.27;;
31224;SDS011;17847;31.524;74.366;2024-03-23T05:31:05;31.20;;;13.98;;
31224;SDS011;17847;31.524;74.366;2024-03-23T05:33:33;21.10;;;11.15;;
31224;SDS011;17847;31.524;74.366;2024-03-23T05:36:01;23.90;;;10.88;;
31224;SDS011;17847;31.524;74.366;2024-03-23T05:38:30;17.13;;;11.00;;
31224;SDS011;17847;31.524;74.366;2024-03-23T05:40:58;13.93;;;9.35;;
31224;SDS011;17847;31.524;74.366;2024-03-23T05:43:27;15.82;;;8.27;;
31224;SDS011;17847;31.524;74.366;2024-03-23T05:48:23;19.13;;;10.05;;
31224;SDS011;17847;31.524;74.366;2024-03-23T05:50:54;16.38;;;10.18;;
31224;SDS011;17847;31.524;74.366;2024-03-23T05:53:21;18.60;;;11.10;;
31224;SDS011;17847;31.524;74.366;2024-03-23T05:55:50;24.17;;;11.27;;
31224;SDS011;17847;31.524;74.366;2024-03-23T05:58:20;15.43;;;9.18;;
31224;SDS011;17847;31.524;74.366;2024-03-23T06:00:48;12.30;;;8.38;;
31224;SDS011;17847;31.524;74.366;2024-03-23T06:03:16;13.48;;;9.40;;
31224;SDS011;17847;31.524;74.366;2024-03-23T06:05:43;15.60;;;9.73;;
31224;SDS011;17847;31.524;74.366;2024-03-23T06:08:11;16.27;;;9.70;;
31224;SDS011;17847;31.524;74.366;2024-03-23T06:10:39;17.17;;;9.00;;
31224;SDS011;17847;31.524;74.366;2024-03-23T06:13:08;12.30;;;8.32;;
31224;SDS011;17847;31.524;74.366;2024-03-23T06:15:35;15.07;;;9.38;;
31224;SDS011;17847;31.524;74.366;2024-03-23T06:18:04;15.82;;;8.65;;
31224;SDS011;17847;31.524;74.366;2024-03-23T06:20:34;13.80;;;8.98;;
31224;SDS011;17847;31.524;74.366;2024-03-23T06:23:02;18.45;;;8.70;;
31224;SDS011;17847;31.524;74.366;2024-03-23T06:25:30;19.77;;;9.85;;
31224;SDS011;17847;31.524;74.366;2024-03-23T06:27:58;19.45;;;8.00;;
31224;SDS011;17847;31.524;74.366;2024-03-23T06:30:26;15.40;;;8.63;;
31224;SDS011;17847;31.524;74.366;2024-03-23T06:32:54;19.27;;;7.20;;
31224;SDS011;17847;31.524;74.366;2024-03-23T06:35:23;13.95;;;6.90;;
31224;SDS011;17847;31.524;74.366;2024-03-23T06:37:50;10.18;;;6.35;;
31224;SDS011;17847;31.524;74.366;2024-03-23T06:40:18;12.80;;;6.68;;
31224;SDS011;17847;31.524;74.366;2024-03-23T06:42:46;10.93;;;6.03;;
31224;SDS011;17847;31.524;74.366;2024-03-23T06:45:14;10.73;;;6.45;;
31224;SDS011;17847;31.524;74.366;2024-03-23T06:47:42;13.80;;;5.93;;
31224;SDS011;17847;31.524;74.366;2024-03-23T06:50:09;15.52;;;6.68;;
31224;SDS011;17847;31.524;74.366;2024-03-23T06:52:38;15.02;;;6.75;;
31224;SDS011;17847;31.524;74.366;2024-03-23T06:55:06;11.02;;;5.60;;
31224;SDS011;17847;31.524;74.366;2024-03-23T06:57:34;14.88;;;6.45;;
31224;SDS011;17847;31.524;74.366;2024-03-23T07:00:02;18.23;;;6.97;;
31224;SDS011;17847;31.524;74.366;2024-03-23T07:02:31;14.35;;;5.80;;
31224;SDS011;17847;31.524;74.366;2024-03-23T07:04:59;26.80;;;8.32;;
31224;SDS011;17847;31.524;74.366;2024-03-23T07:07:27;16.40;;;7.65;;
31224;SDS011;17847;31.524;74.366;2024-03-23T07:09:56;13.40;;;5.53;;
31224;SDS011;17847;31.524;74.366;2024-03-23T07:12:24;14.32;;;5.35;;
31224;SDS011;17847;31.524;74.366;2024-03-23T07:14:52;12.55;;;5.10;;
31224;SDS011;17847;31.524;74.366;2024-03-23T07:17:20;11.35;;;4.90;;
31224;SDS011;17847;31.524;74.366;2024-03-23T07:19:47;14.30;;;5.18;;
31224;SDS011;17847;31.524;74.366;2024-03-23T07:22:15;9.35;;;4.05;;
31224;SDS011;17847;31.524;74.366;2024-03-23T07:24:43;5.38;;;4.10;;
31224;SDS011;17847;31.524;74.366;2024-03-23T07:27:11;8.18;;;4.50;;
31224;SDS011;17847;31.524;74.366;2024-03-23T07:29:39;14.40;;;5.55;;
31224;SDS011;17847;31.524;74.366;2024-03-23T07:32:07;8.25;;;5.45;;
31224;SDS011;17847;31.524;74.366;2024-03-23T07:34:35;8.32;;;5.13;;
31224;SDS011;17847;31.524;74.366;2024-03-23T07:37:02;11.50;;;5.95;;
31224;SDS011;17847;31.524;74.366;2024-03-23T07:39:30;15.38;;;6.10;;
31224;SDS011;17847;31.524;74.366;2024-03-23T07:42:00;17.52;;;7.00;;
31224;SDS011;17847;31.524;74.366;2024-03-23T07:44:29;13.82;;;5.97;;
31224;SDS011;17847;31.524;74.366;2024-03-23T07:46:58;10.75;;;5.75;;
31224;SDS011;17847;31.524;74.366;2024-03-23T07:49:27;8.23;;;5.47;;
31224;SDS011;17847;31.524;74.366;2024-03-23T07:51:55;10.55;;;5.38;;
31224;SDS011;17847;31.524;74.366;2024-03-23T07:54:23;10.80;;;5.07;;
31224;SDS011;17847;31.524;74.366;2024-03-23T07:56:51;11.68;;;5.82;;
31224;SDS011;17847;31.524;74.366;2024-03-23T07:59:19;10.07;;;5.32;;
31224;SDS011;17847;31.524;74.366;2024-03-23T08:01:46;8.70;;;5.32;;
31224;SDS011;17847;31.524;74.366;2024-03-23T08:04:14;8.63;;;5.00;;
31224;SDS011;17847;31.524;74.366;2024-03-23T08:06:42;10.15;;;5.47;;
31224;SDS011;17847;31.524;74.366;2024-03-23T08:09:10;9.02;;;4.78;;
31224;SDS011;17847;31.524;74.366;2024-03-23T08:11:37;6.05;;;3.90;;
31224;SDS011;17847;31.524;74.366;2024-03-23T08:14:06;6.40;;;4.00;;
31224;SDS011;17847;31.524;74.366;2024-03-23T08:16:34;6.35;;;4.20;;
31224;SDS011;17847;31.524;74.366;2024-03-23T08:19:01;10.30;;;3.92;;
31224;SDS011;17847;31.524;74.366;2024-03-23T08:21:35;17.10;;;3.95;;
31224;SDS011;17847;31.524;74.366;2024-03-23T08:24:03;10.32;;;4.85;;
31224;SDS011;17847;31.524;74.366;2024-03-23T08:26:31;10.10;;;4.55;;
31224;SDS011;17847;31.524;74.366;2024-03-23T08:29:00;8.85;;;4.95;;
31224;SDS011;17847;31.524;74.366;2024-03-23T08:31:30;8.85;;;4.45;;
31224;SDS011;17847;31.524;74.366;2024-03-23T08:33:58;11.18;;;5.70;;
31224;SDS011;17847;31.524;74.366;2024-03-23T08:36:26;12.40;;;5.05;;
31224;SDS011;17847;31.524;74.366;2024-03-23T08:38:54;6.97;;;4.80;;
31224;SDS011;17847;31.524;74.366;2024-03-23T08:41:22;9.90;;;5.03;;
31224;SDS011;17847;31.524;74.366;2024-03-23T08:43:51;13.15;;;5.40;;
31224;SDS011;17847;31.524;74.366;2024-03-23T08:46:19;9.65;;;5.85;;
31224;SDS011;17847;31.524;74.366;2024-03-23T08:48:47;16.75;;;5.50;;
31224;SDS011;17847;31.524;74.366;2024-03-23T08:51:19;9.65;;;4.97;;
31224;SDS011;17847;31.524;74.366;2024-03-23T08:53:47;9.32;;;3.75;;
31224;SDS011;17847;31.524;74.366;2024-03-23T08:56:15;9.63;;;4.15;;
31224;SDS011;17847;31.524;74.366;2024-03-23T08:58:42;11.77;;;5.30;;
31224;SDS011;17847;31.524;74.366;2024-03-23T09:01:11;9.73;;;4.40;;
31224;SDS011;17847;31.524;74.366;2024-03-23T09:03:42;13.80;;;4.72;;
31224;SDS011;17847;31.524;74.366;2024-03-23T09:06:10;8.98;;;4.72;;
31224;SDS011;17847;31.524;74.366;2024-03-23T09:08:39;10.13;;;4.80;;
31224;SDS011;17847;31.524;74.366;2024-03-23T09:11:09;5.68;;;3.97;;
31224;SDS011;17847;31.524;74.366;2024-03-23T09:13:38;11.15;;;4.72;;
31224;SDS011;17847;31.524;74.366;2024-03-23T09:16:08;9.68;;;4.38;;
31224;SDS011;17847;31.524;74.366;2024-03-23T09:18:36;8.25;;;4.20;;
31224;SDS011;17847;31.524;74.366;2024-03-23T09:21:10;6.07;;;3.80;;
31224;SDS011;17847;31.524;74.366;2024-03-23T09:23:45;8.50;;;4.22;;
31224;SDS011;17847;31.524;74.366;2024-03-23T09:26:14;7.95;;;5.32;;
31224;SDS011;17847;31.524;74.366;2024-03-23T09:28:42;12.75;;;4.57;;
31224;SDS011;17847;31.524;74.366;2024-03-23T09:31:10;10.15;;;4.43;;
31224;SDS011;17847;31.524;74.366;2024-03-23T09:33:41;14.07;;;4.55;;
31224;SDS011;17847;31.524;74.366;2024-03-23T09:36:09;10.32;;;4.20;;
31224;SDS011;17847;31.524;74.366;2024-03-23T09:38:37;5.90;;;4.05;;
31224;SDS011;17847;31.524;74.366;2024-03-23T09:41:08;7.22;;;3.85;;
31224;SDS011;17847;31.524;74.366;2024-03-23T09:43:36;7.93;;;4.03;;
31224;SDS011;17847;31.524;74.366;2024-03-23T09:46:03;5.65;;;3.88;;
31224;SDS011;17847;31.524;74.366;2024-03-23T09:48:32;10.00;;;4.90;;
31224;SDS011;17847;31.524;74.366;2024-03-23T09:51:00;8.52;;;5.43;;
31224;SDS011;17847;31.524;74.366;2024-03-23T09:53:30;8.75;;;4.70;;
31224;SDS011;17847;31.524;74.366;2024-03-23T09:55:59;11.75;;;5.25;;
31224;SDS011;17847;31.524;74.366;2024-03-23T09:58:26;10.70;;;4.90;;
31224;SDS011;17847;31.524;74.366;2024-03-23T10:00:54;12.10;;;4.95;;
31224;SDS011;17847;31.524;74.366;2024-03-23T10:03:22;10.00;;;5.20;;
31224;SDS011;17847;31.524;74.366;2024-03-23T10:06:03;9.40;;;4.93;;
31224;SDS011;17847;31.524;74.366;2024-03-23T10:08:32;12.23;;;5.85;;
31224;SDS011;17847;31.524;74.366;2024-03-23T10:11:12;7.68;;;5.35;;
31224;SDS011;17847;31.524;74.366;2024-03-23T10:13:43;11.30;;;5.80;;
31224;SDS011;17847;31.524;74.366;2024-03-23T10:16:22;9.02;;;5.38;;
31224;SDS011;17847;31.524;74.366;2024-03-23T10:18:51;8.38;;;4.78;;
31224;SDS011;17847;31.524;74.366;2024-03-23T10:21:18;9.48;;;6.07;;
31224;SDS011;17847;31.524;74.366;2024-03-23T10:23:46;15.80;;;6.30;;
31224;SDS011;17847;31.524;74.366;2024-03-23T10:28:58;10.00;;;5.10;;
31224;SDS011;17847;31.524;74.366;2024-03-23T10:31:34;9.85;;;5.13;;
31224;SDS011;17847;31.524;74.366;2024-03-23T10:34:08;11.02;;;6.45;;
31224;SDS011;17847;31.524;74.366;2024-03-23T10:36:35;15.50;;;5.93;;
31224;SDS011;17847;31.524;74.366;2024-03-23T10:39:08;11.55;;;6.90;;
31224;SDS011;17847;31.524;74.366;2024-03-23T10:41:36;14.80;;;6.85;;
31224;SDS011;17847;31.524;74.366;2024-03-23T10:44:06;13.40;;;5.95;;
31224;SDS011;17847;31.524;74.366;2024-03-23T10:46:36;9.18;;;6.00;;
31224;SDS011;17847;31.524;74.366;2024-03-23T10:49:03;16.58;;;7.20;;
31224;SDS011;17847;31.524;74.366;2024-03-23T10:51:31;7.85;;;4.57;;
31224;SDS011;17847;31.524;74.366;2024-03-23T10:53:59;10.60;;;5.70;;
31224;SDS011;17847;31.524;74.366;2024-03-23T10:56:34;17.42;;;5.90;;
31224;SDS011;17847;31.524;74.366;2024-03-23T10:59:03;9.55;;;5.25;;
31224;SDS011;17847;31.524;74.366;2024-03-23T11:01:34;11.57;;;5.70;;
31224;SDS011;17847;31.524;74.366;2024-03-23T11:04:01;6.60;;;4.90;;
31224;SDS011;17847;31.524;74.366;2024-03-23T11:06:39;15.52;;;5.80;;
31224;SDS011;17847;31.524;74.366;2024-03-23T11:17:22;16.27;;;6.93;;
31224;SDS011;17847;31.524;74.366;2024-03-23T11:19:55;17.77;;;7.30;;
31224;SDS011;17847;31.524;74.366;2024-03-23T11:25:22;10.32;;;7.75;;
31224;SDS011;17847;31.524;74.366;2024-03-23T11:27:51;19.50;;;8.93;;
31224;SDS011;17847;31.524;74.366;2024-03-23T11:32:54;12.32;;;7.53;;
31224;SDS011;17847;31.524;74.366;2024-03-23T11:38:11;19.13;;;7.05;;
31224;SDS011;17847;31.524;74.366;2024-03-23T11:40:41;9.05;;;6.93;;
31224;SDS011;17847;31.524;74.366;2024-03-23T11:43:11;19.20;;;8.73;;
31224;SDS011;17847;31.524;74.366;2024-03-23T11:45:47;12.55;;;8.18;;
31224;SDS011;17847;31.524;74.366;2024-03-23T11:48:22;14.77;;;7.03;;
31224;SDS011;17847;31.524;74.366;2024-03-23T11:50:51;11.73;;;7.25;;
31224;SDS011;17847;31.524;74.366;2024-03-23T11:53:24;15.35;;;7.07;;
31224;SDS011;17847;31.524;74.366;2024-03-23T11:55:56;15.73;;;7.47;;
31224;SDS011;17847;31.524;74.366;2024-03-23T11:58:26;16.77;;;7.22;;
31224;SDS011;17847;31.524;74.366;2024-03-23T12:00:58;18.98;;;8.45;;
31224;SDS011;17847;31.524;74.366;2024-03-23T12:03:29;18.02;;;7.25;;
31224;SDS011;17847;31.524;74.366;2024-03-23T12:05:59;22.65;;;7.93;;
31224;SDS011;17847;31.524;74.366;2024-03-23T12:08:29;23.80;;;7.53;;
31224;SDS011;17847;31.524;74.366;2024-03-23T12:11:07;23.20;;;6.75;;
31224;SDS011;17847;31.524;74.366;2024-03-23T12:13:45;12.32;;;6.53;;
31224;SDS011;17847;31.524;74.366;2024-03-23T12:16:14;15.75;;;7.70;;
31224;SDS011;17847;31.524;74.366;2024-03-23T12:18:47;10.30;;;6.63;;
31224;SDS011;17847;31.524;74.366;2024-03-23T12:21:18;12.13;;;6.97;;
31224;SDS011;17847;31.524;74.366;2024-03-23T12:23:49;17.67;;;7.13;;
31224;SDS011;17847;31.524;74.366;2024-03-23T12:26:17;12.73;;;7.05;;
31224;SDS011;17847;31.524;74.366;2024-03-23T12:28:45;12.05;;;7.28;;
31224;SDS011;17847;31.524;74.366;2024-03-23T12:31:12;13.90;;;7.53;;
31224;SDS011;17847;31.524;74.366;2024-03-23T12:33:41;13.52;;;7.32;;
31224;SDS011;17847;31.524;74.366;2024-03-23T12:36:09;16.73;;;7.00;;
31224;SDS011;17847;31.524;74.366;2024-03-23T12:38:36;15.00;;;6.53;;
31224;SDS011;17847;31.524;74.366;2024-03-23T12:41:08;15.57;;;6.20;;
31224;SDS011;17847;31.524;74.366;2024-03-23T12:43:37;11.30;;;6.43;;
31224;SDS011;17847;31.524;74.366;2024-03-23T12:46:04;12.65;;;6.22;;
31224;SDS011;17847;31.524;74.366;2024-03-23T12:48:34;17.08;;;7.65;;
31224;SDS011;17847;31.524;74.366;2024-03-23T12:51:02;11.77;;;5.90;;
31224;SDS011;17847;31.524;74.366;2024-03-23T12:53:30;12.65;;;6.78;;
31224;SDS011;17847;31.524;74.366;2024-03-23T12:55:58;12.35;;;5.75;;
31224;SDS011;17847;31.524;74.366;2024-03-23T12:58:25;16.58;;;7.70;;
31224;SDS011;17847;31.524;74.366;2024-03-23T13:00:53;10.68;;;5.93;;
31224;SDS011;17847;31.524;74.366;2024-03-23T13:03:21;15.15;;;6.00;;
31224;SDS011;17847;31.524;74.366;2024-03-23T13:05:52;15.30;;;5.53;;
31224;SDS011;17847;31.524;74.366;2024-03-23T13:08:19;10.30;;;5.30;;
31224;SDS011;17847;31.524;74.366;2024-03-23T13:10:51;12.85;;;5.93;;
31224;SDS011;17847;31.524;74.366;2024-03-23T13:13:19;18.85;;;6.55;;
31224;SDS011;17847;31.524;74.366;2024-03-23T13:15:50;19.13;;;6.20;;
31224;SDS011;17847;31.524;74.366;2024-03-23T13:18:22;12.52;;;6.32;;
31224;SDS011;17847;31.524;74.366;2024-03-23T13:20:49;16.30;;;5.93;;
31224;SDS011;17847;31.524;74.366;2024-03-23T13:23:17;13.13;;;5.85;;
31224;SDS011;17847;31.524;74.366;2024-03-23T13:25:51;13.32;;;5.82;;
31224;SDS011;17847;31.524;74.366;2024-03-23T13:28:20;13.65;;;5.97;;
31224;SDS011;17847;31.524;74.366;2024-03-23T13:30:51;14.93;;;6.00;;
31224;SDS011;17847;31.524;74.366;2024-03-23T13:33:22;15.70;;;6.35;;
31224;SDS011;17847;31.524;74.366;2024-03-23T13:35:51;11.88;;;6.70;;
31224;SDS011;17847;31.524;74.366;2024-03-23T13:38:22;11.70;;;6.13;;
31224;SDS011;17847;31.524;74.366;2024-03-23T13:40:57;13.95;;;6.20;;
31224;SDS011;17847;31.524;74.366;2024-03-23T13:43:26;12.73;;;6.75;;
31224;SDS011;17847;31.524;74.366;2024-03-23T13:45:58;19.90;;;7.22;;
31224;SDS011;17847;31.524;74.366;2024-03-23T13:48:29;12.85;;;6.30;;
31224;SDS011;17847;31.524;74.366;2024-03-23T13:51:00;17.45;;;6.53;;
31224;SDS011;17847;31.524;74.366;2024-03-23T13:53:30;14.97;;;7.93;;
31224;SDS011;17847;31.524;74.366;2024-03-23T13:56:01;16.45;;;7.90;;
31224;SDS011;17847;31.524;74.366;2024-03-23T13:58:29;16.35;;;7.47;;
31224;SDS011;17847;31.524;74.366;2024-03-23T14:00:58;19.45;;;7.95;;
31224;SDS011;17847;31.524;74.366;2024-03-23T14:03:26;12.68;;;7.82;;
31224;SDS011;17847;31.524;74.366;2024-03-23T14:05:59;15.43;;;7.43;;
31224;SDS011;17847;31.524;74.366;2024-03-23T14:08:31;18.25;;;7.63;;
31224;SDS011;17847;31.524;74.366;2024-03-23T14:11:00;16.83;;;8.00;;
31224;SDS011;17847;31.524;74.366;2024-03-23T14:13:30;12.40;;;8.05;;
31224;SDS011;17847;31.524;74.366;2024-03-23T14:15:58;12.65;;;7.75;;
31224;SDS011;17847;31.524;74.366;2024-03-23T14:18:29;15.52;;;7.78;;
31224;SDS011;17847;31.524;74.366;2024-03-23T14:20:58;18.05;;;7.50;;
31224;SDS011;17847;31.524;74.366;2024-03-23T14:23:27;17.08;;;8.52;;
31224;SDS011;17847;31.524;74.366;2024-03-23T14:25:56;28.02;;;10.20;;
31224;SDS011;17847;31.524;74.366;2024-03-23T14:28:24;16.63;;;9.25;;
31224;SDS011;17847;31.524;74.366;2024-03-23T14:30:54;16.20;;;10.02;;
31224;SDS011;17847;31.524;74.366;2024-03-23T14:33:23;13.80;;;9.02;;
31224;SDS011;17847;31.524;74.366;2024-03-23T14:35:54;19.92;;;9.65;;
31224;SDS011;17847;31.524;74.366;2024-03-23T14:38:23;32.10;;;10.43;;
31224;SDS011;17847;31.524;74.366;2024-03-23T14:40:51;20.92;;;9.15;;
31224;SDS011;17847;31.524;74.366;2024-03-23T14:43:25;21.48;;;9.45;;
31224;SDS011;17847;31.524;74.366;2024-03-23T14:46:12;26.58;;;10.55;;
31224;SDS011;17847;31.524;74.366;2024-03-23T14:48:43;18.40;;;11.00;;
31224;SDS011;17847;31.524;74.366;2024-03-23T14:51:12;30.42;;;12.23;;
31224;SDS011;17847;31.524;74.366;2024-03-23T14:53:41;28.08;;;13.63;;
31224;SDS011;17847;31.524;74.366;2024-03-23T14:56:12;31.13;;;15.32;;
31224;SDS011;17847;31.524;74.366;2024-03-23T14:58:42;30.55;;;16.25;;
31224;SDS011;17847;31.524;74.366;2024-03-23T15:01:16;30.48;;;15.73;;
31224;SDS011;17847;31.524;74.366;2024-03-23T15:03:45;32.33;;;17.15;;
31224;SDS011;17847;31.524;74.366;2024-03-23T15:06:14;38.70;;;17.83;;
31224;SDS011;17847;31.524;74.366;2024-03-23T15:08:45;29.42;;;17.50;;
31224;SDS011;17847;31.524;74.366;2024-03-23T15:11:13;27.88;;;18.55;;
31224;SDS011;17847;31.524;74.366;2024-03-23T15:13:45;36.93;;;19.50;;
31224;SDS011;17847;31.524;74.366;2024-03-23T15:16:18;44.33;;;21.65;;
31224;SDS011;17847;31.524;74.366;2024-03-23T15:18:47;37.42;;;21.45;;
31224;SDS011;17847;31.524;74.366;2024-03-23T15:21:15;36.92;;;21.77;;
31224;SDS011;17847;31.524;74.366;2024-03-23T15:23:47;37.35;;;21.38;;
31224;SDS011;17847;31.524;74.366;2024-03-23T15:26:15;43.42;;;21.83;;
31224;SDS011;17847;31.524;74.366;2024-03-23T15:28:43;39.30;;;22.30;;
31224;SDS011;17847;31.524;74.366;2024-03-23T15:31:24;36.65;;;21.45;;
31224;SDS011;17847;31.524;74.366;2024-03-23T15:33:52;44.50;;;22.13;;
31224;SDS011;17847;31.524;74.366;2024-03-23T15:36:20;44.75;;;21.73;;
31224;SDS011;17847;31.524;74.366;2024-03-23T15:38:48;42.35;;;23.25;;
31224;SDS011;17847;31.524;74.366;2024-03-23T15:41:16;39.70;;;21.80;;